Terminal Aerodrome Forecast
Issued by NWS

Home | Current Version | Previous Version | Text Only | Print | Product List | Glossary On
Versions: 1 2 3 4 5 6 7 8 9 10 11 12 13
282
FTPA31 PHFO 160307 AAA
TAFHJH
TAF AMD
PHJH 160307Z 1603/1624 36020KT P6SM VCSH SCT025 BKN045
      TEMPO 1603/1604 -SHRA
     FM160400 36010G15KT 6SM -SHRA BKN025 BKN045
     FM161000 10008KT 5SM -SHRA BKN025 BKN045
     FM162000 22008KT P6SM VCSH SCT025 BKN035
      AMD NOT SKED 1604/1616=

USA.gov is the U.S. government's official web portal to all federal, state and local government web resources and services.